sensor_id;sensor_type;location;lat;lon;timestamp;temperature;humidity
12434;DHT22;6281;49.038;8.372;2024-03-02T00:01:30;5.40;99.90
12434;DHT22;6281;49.038;8.372;2024-03-02T00:03:57;5.30;99.90
12434;DHT22;6281;49.038;8.372;2024-03-02T00:06:28;5.40;99.90
12434;DHT22;6281;49.038;8.372;2024-03-02T00:09:04;5.40;99.90
12434;DHT22;6281;49.038;8.372;2024-03-02T00:11:34;5.30;99.90
12434;DHT22;6281;49.038;8.372;2024-03-02T00:14:04;5.40;99.90
12434;DHT22;6281;49.038;8.372;2024-03-02T00:16:32;5.50;99.90
12434;DHT22;6281;49.038;8.372;2024-03-02T00:19:09;5.40;99.90
12434;DHT22;6281;49.038;8.372;2024-03-02T00:21:53;5.40;99.90
12434;DHT22;6281;49.038;8.372;2024-03-02T00:24:38;4.80;99.90
12434;DHT22;6281;49.038;8.372;2024-03-02T00:27:26;4.80;99.90
12434;DHT22;6281;49.038;8.372;2024-03-02T00:29:55;4.70;99.90
12434;DHT22;6281;49.038;8.372;2024-03-02T00:32:25;4.80;99.90
12434;DHT22;6281;49.038;8.372;2024-03-02T00:34:54;4.80;99.90
12434;DHT22;6281;49.038;8.372;2024-03-02T00:37:40;4.80;99.90
12434;DHT22;6281;49.038;8.372;2024-03-02T00:40:15;5.00;99.90
12434;DHT22;6281;49.038;8.372;2024-03-02T00:42:42;5.00;99.90
12434;DHT22;6281;49.038;8.372;2024-03-02T00:45:09;5.00;99.90
12434;DHT22;6281;49.038;8.372;2024-03-02T00:47:38;5.00;99.90
12434;DHT22;6281;49.038;8.372;2024-03-02T00:50:05;5.00;99.90
12434;DHT22;6281;49.038;8.372;2024-03-02T00:52:34;4.60;99.90
12434;DHT22;6281;49.038;8.372;2024-03-02T00:55:03;4.60;99.90
12434;DHT22;6281;49.038;8.372;2024-03-02T00:57:33;4.50;99.90
12434;DHT22;6281;49.038;8.372;2024-03-02T01:00:00;4.40;99.90
12434;DHT22;6281;49.038;8.372;2024-03-02T01:02:29;4.50;99.90
12434;DHT22;6281;49.038;8.372;2024-03-02T01:04:56;4.50;99.90
12434;DHT22;6281;49.038;8.372;2024-03-02T01:07:22;4.60;99.90
12434;DHT22;6281;49.038;8.372;2024-03-02T01:09:49;4.80;99.90
12434;DHT22;6281;49.038;8.372;2024-03-02T01:12:18;4.90;99.90
12434;DHT22;6281;49.038;8.372;2024-03-02T01:14:45;5.00;99.90
12434;DHT22;6281;49.038;8.372;2024-03-02T01:17:12;4.80;99.90
12434;DHT22;6281;49.038;8.372;2024-03-02T01:19:41;4.60;99.90
12434;DHT22;6281;49.038;8.372;2024-03-02T01:22:09;4.70;99.90
12434;DHT22;6281;49.038;8.372;2024-03-02T01:24:36;4.90;99.90
12434;DHT22;6281;49.038;8.372;2024-03-02T01:27:03;5.00;99.90
12434;DHT22;6281;49.038;8.372;2024-03-02T01:29:32;4.90;99.90
12434;DHT22;6281;49.038;8.372;2024-03-02T01:32:08;4.90;99.90
12434;DHT22;6281;49.038;8.372;2024-03-02T01:34:37;4.80;99.90
12434;DHT22;6281;49.038;8.372;2024-03-02T01:37:04;4.70;99.90
12434;DHT22;6281;49.038;8.372;2024-03-02T01:39:31;4.70;99.90
12434;DHT22;6281;49.038;8.372;2024-03-02T01:41:58;4.70;99.90
12434;DHT22;6281;49.038;8.372;2024-03-02T01:44:25;4.70;99.90
12434;DHT22;6281;49.038;8.372;2024-03-02T01:46:54;4.90;99.90
12434;DHT22;6281;49.038;8.372;2024-03-02T01:49:21;4.80;99.90
12434;DHT22;6281;49.038;8.372;2024-03-02T01:51:48;4.80;99.90
12434;DHT22;6281;49.038;8.372;2024-03-02T01:54:15;4.80;99.90
12434;DHT22;6281;49.038;8.372;2024-03-02T01:56:42;4.80;99.90
12434;DHT22;6281;49.038;8.372;2024-03-02T01:59:09;4.70;99.90
12434;DHT22;6281;49.038;8.372;2024-03-02T02:01:38;4.70;99.90
12434;DHT22;6281;49.038;8.372;2024-03-02T02:04:07;4.50;99.90
12434;DHT22;6281;49.038;8.372;2024-03-02T02:06:34;4.40;99.90
12434;DHT22;6281;49.038;8.372;2024-03-02T02:09:01;4.40;99.90
12434;DHT22;6281;49.038;8.372;2024-03-02T02:11:28;4.20;99.90
12434;DHT22;6281;49.038;8.372;2024-03-02T02:13:55;4.00;99.90
12434;DHT22;6281;49.038;8.372;2024-03-02T02:16:22;4.00;99.90
12434;DHT22;6281;49.038;8.372;2024-03-02T02:18:49;3.90;99.90
12434;DHT22;6281;49.038;8.372;2024-03-02T02:21:17;3.90;99.90
12434;DHT22;6281;49.038;8.372;2024-03-02T02:23:46;3.90;99.90
12434;DHT22;6281;49.038;8.372;2024-03-02T02:26:14;4.00;99.90
12434;DHT22;6281;49.038;8.372;2024-03-02T02:28:40;4.10;99.90
12434;DHT22;6281;49.038;8.372;2024-03-02T02:31:12;4.10;99.90
12434;DHT22;6281;49.038;8.372;2024-03-02T02:33:39;4.10;99.90
12434;DHT22;6281;49.038;8.372;2024-03-02T02:36:06;4.30;99.90
12434;DHT22;6281;49.038;8.372;2024-03-02T02:38:38;4.20;99.90
12434;DHT22;6281;49.038;8.372;2024-03-02T02:41:07;4.20;99.90
12434;DHT22;6281;49.038;8.372;2024-03-02T02:43:34;4.10;99.90
12434;DHT22;6281;49.038;8.372;2024-03-02T02:46:01;4.00;99.90
12434;DHT22;6281;49.038;8.372;2024-03-02T02:48:28;4.10;99.90
12434;DHT22;6281;49.038;8.372;2024-03-02T02:50:55;4.00;99.90
12434;DHT22;6281;49.038;8.372;2024-03-02T02:53:22;3.90;99.90
12434;DHT22;6281;49.038;8.372;2024-03-02T02:55:48;3.90;99.90
12434;DHT22;6281;49.038;8.372;2024-03-02T02:58:17;3.80;99.90
12434;DHT22;6281;49.038;8.372;2024-03-02T03:00:44;3.80;99.90
12434;DHT22;6281;49.038;8.372;2024-03-02T03:03:10;3.80;99.90
12434;DHT22;6281;49.038;8.372;2024-03-02T03:05:37;3.60;99.90
12434;DHT22;6281;49.038;8.372;2024-03-02T03:08:04;3.50;99.90
12434;DHT22;6281;49.038;8.372;2024-03-02T03:10:31;3.40;99.90
12434;DHT22;6281;49.038;8.372;2024-03-02T03:12:58;3.40;99.90
12434;DHT22;6281;49.038;8.372;2024-03-02T03:15:27;3.40;99.90
12434;DHT22;6281;49.038;8.372;2024-03-02T03:17:54;3.50;99.90
12434;DHT22;6281;49.038;8.372;2024-03-02T03:20:21;3.60;99.90
12434;DHT22;6281;49.038;8.372;2024-03-02T03:22:49;3.70;99.90
12434;DHT22;6281;49.038;8.372;2024-03-02T03:25:16;3.70;99.90
12434;DHT22;6281;49.038;8.372;2024-03-02T03:27:42;3.50;99.90
12434;DHT22;6281;49.038;8.372;2024-03-02T03:30:10;3.30;99.90
12434;DHT22;6281;49.038;8.372;2024-03-02T03:32:39;3.50;99.90
12434;DHT22;6281;49.038;8.372;2024-03-02T03:35:06;3.40;99.90
12434;DHT22;6281;49.038;8.372;2024-03-02T03:37:34;3.60;99.90
12434;DHT22;6281;49.038;8.372;2024-03-02T03:40:02;3.50;99.90
12434;DHT22;6281;49.038;8.372;2024-03-02T03:42:33;3.50;99.90
12434;DHT22;6281;49.038;8.372;2024-03-02T03:44:59;3.30;99.90
12434;DHT22;6281;49.038;8.372;2024-03-02T03:47:26;3.40;99.90
12434;DHT22;6281;49.038;8.372;2024-03-02T03:49:54;3.30;99.90
12434;DHT22;6281;49.038;8.372;2024-03-02T03:52:21;3.30;99.90
12434;DHT22;6281;49.038;8.372;2024-03-02T03:54:48;3.50;99.90
12434;DHT22;6281;49.038;8.372;2024-03-02T03:57:15;3.30;99.90
12434;DHT22;6281;49.038;8.372;2024-03-02T03:59:42;3.10;99.90
12434;DHT22;6281;49.038;8.372;2024-03-02T04:02:10;3.30;99.90
12434;DHT22;6281;49.038;8.372;2024-03-02T04:04:38;3.50;99.90
12434;DHT22;6281;49.038;8.372;2024-03-02T04:07:06;3.70;99.90
12434;DHT22;6281;49.038;8.372;2024-03-02T04:09:33;3.80;99.90
12434;DHT22;6281;49.038;8.372;2024-03-02T04:12:00;3.70;99.90
12434;DHT22;6281;49.038;8.372;2024-03-02T04:14:27;3.70;99.90
12434;DHT22;6281;49.038;8.372;2024-03-02T04:16:54;3.70;99.90
12434;DHT22;6281;49.038;8.372;2024-03-02T04:19:21;3.50;99.90
12434;DHT22;6281;49.038;8.372;2024-03-02T04:21:48;3.40;99.90
12434;DHT22;6281;49.038;8.372;2024-03-02T04:24:16;3.50;99.90
12434;DHT22;6281;49.038;8.372;2024-03-02T04:26:43;3.50;99.90
12434;DHT22;6281;49.038;8.372;2024-03-02T04:29:10;3.50;99.90
12434;DHT22;6281;49.038;8.372;2024-03-02T04:31:37;3.20;99.90
12434;DHT22;6281;49.038;8.372;2024-03-02T04:34:03;3.20;99.90
12434;DHT22;6281;49.038;8.372;2024-03-02T04:36:30;3.40;99.90
12434;DHT22;6281;49.038;8.372;2024-03-02T04:38:57;3.60;99.90
12434;DHT22;6281;49.038;8.372;2024-03-02T04:41:25;3.60;99.90
12434;DHT22;6281;49.038;8.372;2024-03-02T04:43:53;3.70;99.90
12434;DHT22;6281;49.038;8.372;2024-03-02T04:46:20;3.70;99.90
12434;DHT22;6281;49.038;8.372;2024-03-02T04:48:47;3.60;99.90
12434;DHT22;6281;49.038;8.372;2024-03-02T04:51:20;3.20;99.90
12434;DHT22;6281;49.038;8.372;2024-03-02T04:53:47;2.80;99.90
12434;DHT22;6281;49.038;8.372;2024-03-02T04:56:14;3.00;99.90
12434;DHT22;6281;49.038;8.372;2024-03-02T04:59:06;3.10;99.90
12434;DHT22;6281;49.038;8.372;2024-03-02T05:01:33;3.00;99.90
12434;DHT22;6281;49.038;8.372;2024-03-02T05:04:00;3.10;99.90
12434;DHT22;6281;49.038;8.372;2024-03-02T05:06:27;3.10;99.90
12434;DHT22;6281;49.038;8.372;2024-03-02T05:08:55;3.50;99.90
12434;DHT22;6281;49.038;8.372;2024-03-02T05:11:22;3.40;99.90
12434;DHT22;6281;49.038;8.372;2024-03-02T05:14:12;3.50;99.90
12434;DHT22;6281;49.038;8.372;2024-03-02T05:16:37;3.50;99.90
12434;DHT22;6281;49.038;8.372;2024-03-02T05:19:05;3.40;99.90
12434;DHT22;6281;49.038;8.372;2024-03-02T05:21:32;3.20;99.90
12434;DHT22;6281;49.038;8.372;2024-03-02T05:24:00;3.00;99.90
12434;DHT22;6281;49.038;8.372;2024-03-02T05:26:27;3.10;99.90
12434;DHT22;6281;49.038;8.372;2024-03-02T05:28:54;3.00;99.90
12434;DHT22;6281;49.038;8.372;2024-03-02T05:33:57;3.00;99.90
12434;DHT22;6281;49.038;8.372;2024-03-02T05:36:23;3.10;99.90
12434;DHT22;6281;49.038;8.372;2024-03-02T05:38:50;3.20;99.90
12434;DHT22;6281;49.038;8.372;2024-03-02T05:41:17;3.10;99.90
12434;DHT22;6281;49.038;8.372;2024-03-02T05:43:44;3.10;99.90
12434;DHT22;6281;49.038;8.372;2024-03-02T05:46:10;2.90;99.90
12434;DHT22;6281;49.038;8.372;2024-03-02T05:48:37;3.00;99.90
12434;DHT22;6281;49.038;8.372;2024-03-02T05:51:05;2.70;99.90
12434;DHT22;6281;49.038;8.372;2024-03-02T05:53:32;2.80;99.90
12434;DHT22;6281;49.038;8.372;2024-03-02T05:55:59;3.10;99.90
12434;DHT22;6281;49.038;8.372;2024-03-02T05:58:26;3.00;99.90
12434;DHT22;6281;49.038;8.372;2024-03-02T06:01:03;2.60;99.90
12434;DHT22;6281;49.038;8.372;2024-03-02T06:03:31;2.80;99.90
12434;DHT22;6281;49.038;8.372;2024-03-02T06:05:58;2.80;99.90
12434;DHT22;6281;49.038;8.372;2024-03-02T06:08:26;2.70;99.90
12434;DHT22;6281;49.038;8.372;2024-03-02T06:10:53;2.70;99.90
12434;DHT22;6281;49.038;8.372;2024-03-02T06:13:21;2.80;99.90
12434;DHT22;6281;49.038;8.372;2024-03-02T06:15:48;2.90;99.90
12434;DHT22;6281;49.038;8.372;2024-03-02T06:18:15;3.00;99.90
12434;DHT22;6281;49.038;8.372;2024-03-02T06:20:42;3.20;99.90
12434;DHT22;6281;49.038;8.372;2024-03-02T06:23:09;3.00;99.90
12434;DHT22;6281;49.038;8.372;2024-03-02T06:25:37;3.00;99.90
12434;DHT22;6281;49.038;8.372;2024-03-02T06:28:04;3.10;99.90
12434;DHT22;6281;49.038;8.372;2024-03-02T06:30:32;3.10;99.90
12434;DHT22;6281;49.038;8.372;2024-03-02T06:32:59;3.00;99.90
12434;DHT22;6281;49.038;8.372;2024-03-02T06:35:26;3.00;99.90
12434;DHT22;6281;49.038;8.372;2024-03-02T06:37:53;3.00;99.90
12434;DHT22;6281;49.038;8.372;2024-03-02T06:40:20;3.10;99.90
12434;DHT22;6281;49.038;8.372;2024-03-02T06:42:48;2.90;99.90
12434;DHT22;6281;49.038;8.372;2024-03-02T06:45:15;2.70;99.90
12434;DHT22;6281;49.038;8.372;2024-03-02T06:47:42;2.80;99.90
12434;DHT22;6281;49.038;8.372;2024-03-02T06:50:09;2.80;99.90
12434;DHT22;6281;49.038;8.372;2024-03-02T06:52:36;2.60;99.90
12434;DHT22;6281;49.038;8.372;2024-03-02T06:55:04;2.60;99.90
12434;DHT22;6281;49.038;8.372;2024-03-02T06:57:32;2.70;99.90
12434;DHT22;6281;49.038;8.372;2024-03-02T07:00:00;2.30;99.90
12434;DHT22;6281;49.038;8.372;2024-03-02T07:02:30;2.30;99.90
12434;DHT22;6281;49.038;8.372;2024-03-02T07:04:58;2.50;99.90
12434;DHT22;6281;49.038;8.372;2024-03-02T07:07:24;2.70;99.90
12434;DHT22;6281;49.038;8.372;2024-03-02T07:09:51;2.60;99.90
12434;DHT22;6281;49.038;8.372;2024-03-02T07:12:18;2.70;99.90
12434;DHT22;6281;49.038;8.372;2024-03-02T07:14:45;2.50;99.90
12434;DHT22;6281;49.038;8.372;2024-03-02T07:17:38;2.80;99.90
12434;DHT22;6281;49.038;8.372;2024-03-02T07:20:05;2.70;99.90
12434;DHT22;6281;49.038;8.372;2024-03-02T07:22:32;3.20;99.90
12434;DHT22;6281;49.038;8.372;2024-03-02T07:25:00;3.00;99.90
12434;DHT22;6281;49.038;8.372;2024-03-02T07:27:26;2.90;99.90
12434;DHT22;6281;49.038;8.372;2024-03-02T07:29:53;3.60;99.90
12434;DHT22;6281;49.038;8.372;2024-03-02T07:32:21;3.90;99.90
12434;DHT22;6281;49.038;8.372;2024-03-02T07:34:49;4.20;99.90
12434;DHT22;6281;49.038;8.372;2024-03-02T07:37:16;4.60;99.90
12434;DHT22;6281;49.038;8.372;2024-03-02T07:39:44;4.80;99.90
12434;DHT22;6281;49.038;8.372;2024-03-02T07:42:11;4.90;99.90
12434;DHT22;6281;49.038;8.372;2024-03-02T07:44:38;5.00;99.90
12434;DHT22;6281;49.038;8.372;2024-03-02T07:47:06;5.20;99.90
12434;DHT22;6281;49.038;8.372;2024-03-02T07:49:33;5.30;99.90
12434;DHT22;6281;49.038;8.372;2024-03-02T07:52:02;5.50;99.90
12434;DHT22;6281;49.038;8.372;2024-03-02T07:54:29;5.60;99.90
12434;DHT22;6281;49.038;8.372;2024-03-02T07:56:55;5.60;99.90
12434;DHT22;6281;49.038;8.372;2024-03-02T07:59:23;5.70;99.90
12434;DHT22;6281;49.038;8.372;2024-03-02T08:01:50;5.80;99.90
12434;DHT22;6281;49.038;8.372;2024-03-02T08:04:17;5.90;99.90
12434;DHT22;6281;49.038;8.372;2024-03-02T08:06:45;6.00;99.90
12434;DHT22;6281;49.038;8.372;2024-03-02T08:09:14;6.20;99.90
12434;DHT22;6281;49.038;8.372;2024-03-02T08:11:41;6.30;99.90
12434;DHT22;6281;49.038;8.372;2024-03-02T08:14:07;6.40;99.90
12434;DHT22;6281;49.038;8.372;2024-03-02T08:16:34;6.50;99.90
12434;DHT22;6281;49.038;8.372;2024-03-02T08:19:01;6.70;99.90
12434;DHT22;6281;49.038;8.372;2024-03-02T08:21:28;6.90;99.90
12434;DHT22;6281;49.038;8.372;2024-03-02T08:23:57;7.00;99.90
12434;DHT22;6281;49.038;8.372;2024-03-02T08:26:26;7.10;99.90
12434;DHT22;6281;49.038;8.372;2024-03-02T08:28:54;7.30;99.90
12434;DHT22;6281;49.038;8.372;2024-03-02T08:31:21;7.50;99.90
12434;DHT22;6281;49.038;8.372;2024-03-02T08:33:48;7.70;99.90
12434;DHT22;6281;49.038;8.372;2024-03-02T08:36:15;7.70;99.90
12434;DHT22;6281;49.038;8.372;2024-03-02T08:38:42;8.20;99.90
12434;DHT22;6281;49.038;8.372;2024-03-02T08:41:09;8.50;99.90
12434;DHT22;6281;49.038;8.372;2024-03-02T08:43:40;8.40;99.90
12434;DHT22;6281;49.038;8.372;2024-03-02T08:46:08;8.40;99.90
12434;DHT22;6281;49.038;8.372;2024-03-02T08:48:34;8.60;99.90
12434;DHT22;6281;49.038;8.372;2024-03-02T08:51:01;8.70;99.90
12434;DHT22;6281;49.038;8.372;2024-03-02T08:53:31;8.80;99.90
12434;DHT22;6281;49.038;8.372;2024-03-02T08:55:58;8.90;99.90
12434;DHT22;6281;49.038;8.372;2024-03-02T08:58:25;9.20;99.90
12434;DHT22;6281;49.038;8.372;2024-03-02T09:00:53;9.10;99.90
12434;DHT22;6281;49.038;8.372;2024-03-02T09:03:20;9.40;99.90
12434;DHT22;6281;49.038;8.372;2024-03-02T09:05:46;9.80;99.90
12434;DHT22;6281;49.038;8.372;2024-03-02T09:08:13;10.10;99.90
12434;DHT22;6281;49.038;8.372;2024-03-02T09:10:40;10.30;99.90
12434;DHT22;6281;49.038;8.372;2024-03-02T09:13:07;11.10;99.90
12434;DHT22;6281;49.038;8.372;2024-03-02T09:15:33;12.00;99.90
12434;DHT22;6281;49.038;8.372;2024-03-02T09:18:04;11.20;99.90
12434;DHT22;6281;49.038;8.372;2024-03-02T09:20:32;11.70;99.90
12434;DHT22;6281;49.038;8.372;2024-03-02T09:22:59;13.30;99.90
12434;DHT22;6281;49.038;8.372;2024-03-02T09:25:26;14.00;99.90
12434;DHT22;6281;49.038;8.372;2024-03-02T09:27:52;13.90;99.90
12434;DHT22;6281;49.038;8.372;2024-03-02T09:30:19;13.00;99.90
12434;DHT22;6281;49.038;8.372;2024-03-02T09:32:46;13.00;99.90
12434;DHT22;6281;49.038;8.372;2024-03-02T09:35:15;12.70;99.90
12434;DHT22;6281;49.038;8.372;2024-03-02T09:37:42;11.60;99.90
12434;DHT22;6281;49.038;8.372;2024-03-02T09:40:10;11.80;99.90
12434;DHT22;6281;49.038;8.372;2024-03-02T09:42:37;12.50;99.90
12434;DHT22;6281;49.038;8.372;2024-03-02T09:45:05;14.10;99.90
12434;DHT22;6281;49.038;8.372;2024-03-02T09:47:32;12.80;99.90
12434;DHT22;6281;49.038;8.372;2024-03-02T09:49:59;11.50;99.90
12434;DHT22;6281;49.038;8.372;2024-03-02T09:52:29;11.20;99.90
12434;DHT22;6281;49.038;8.372;2024-03-02T09:54:57;12.30;99.90
12434;DHT22;6281;49.038;8.372;2024-03-02T09:57:23;11.00;99.90
12434;DHT22;6281;49.038;8.372;2024-03-02T09:59:50;11.40;99.90
12434;DHT22;6281;49.038;8.372;2024-03-02T10:02:17;11.30;99.90
12434;DHT22;6281;49.038;8.372;2024-03-02T10:04:44;11.20;99.90
12434;DHT22;6281;49.038;8.372;2024-03-02T10:07:13;11.60;99.90
12434;DHT22;6281;49.038;8.372;2024-03-02T10:09:42;11.60;99.90
12434;DHT22;6281;49.038;8.372;2024-03-02T10:12:10;11.80;99.90
12434;DHT22;6281;49.038;8.372;2024-03-02T10:14:38;12.00;99.90
12434;DHT22;6281;49.038;8.372;2024-03-02T10:17:06;11.90;99.90
12434;DHT22;6281;49.038;8.372;2024-03-02T10:19:34;12.10;99.90
12434;DHT22;6281;49.038;8.372;2024-03-02T10:22:03;12.20;99.90
12434;DHT22;6281;49.038;8.372;2024-03-02T10:24:36;12.50;99.90
12434;DHT22;6281;49.038;8.372;2024-03-02T10:27:09;12.40;99.90
12434;DHT22;6281;49.038;8.372;2024-03-02T10:29:40;12.20;99.90
12434;DHT22;6281;49.038;8.372;2024-03-02T10:32:09;12.30;99.90
12434;DHT22;6281;49.038;8.372;2024-03-02T10:34:37;12.50;99.90
12434;DHT22;6281;49.038;8.372;2024-03-02T10:37:05;12.60;99.90
12434;DHT22;6281;49.038;8.372;2024-03-02T10:39:34;12.60;99.90
12434;DHT22;6281;49.038;8.372;2024-03-02T10:42:02;12.10;99.90
12434;DHT22;6281;49.038;8.372;2024-03-02T10:44:31;12.70;99.90
12434;DHT22;6281;49.038;8.372;2024-03-02T10:47:00;13.00;99.90
12434;DHT22;6281;49.038;8.372;2024-03-02T10:49:29;13.10;99.90
12434;DHT22;6281;49.038;8.372;2024-03-02T10:51:57;13.10;99.90
12434;DHT22;6281;49.038;8.372;2024-03-02T10:54:25;13.50;99.90
12434;DHT22;6281;49.038;8.372;2024-03-02T10:56:56;14.50;99.90
12434;DHT22;6281;49.038;8.372;2024-03-02T10:59:27;15.20;99.90
12434;DHT22;6281;49.038;8.372;2024-03-02T11:01:58;18.40;47.20
12434;DHT22;6281;49.038;8.372;2024-03-02T11:04:26;21.60;31.50
12434;DHT22;6281;49.038;8.372;2024-03-02T11:06:58;22.30;26.90
12434;DHT22;6281;49.038;8.372;2024-03-02T11:09:27;22.40;25.10
12434;DHT22;6281;49.038;8.372;2024-03-02T11:12:00;22.60;25.80
12434;DHT22;6281;49.038;8.372;2024-03-02T11:14:30;22.20;24.80
12434;DHT22;6281;49.038;8.372;2024-03-02T11:17:00;23.90;22.10
12434;DHT22;6281;49.038;8.372;2024-03-02T11:19:29;21.70;23.40
12434;DHT22;6281;49.038;8.372;2024-03-02T11:21:57;24.60;21.20
12434;DHT22;6281;49.038;8.372;2024-03-02T11:24:31;25.30;19.30
12434;DHT22;6281;49.038;8.372;2024-03-02T11:27:03;21.70;21.00
12434;DHT22;6281;49.038;8.372;2024-03-02T11:29:43;23.90;20.60
12434;DHT22;6281;49.038;8.372;2024-03-02T11:32:37;23.80;20.00
12434;DHT22;6281;49.038;8.372;2024-03-02T11:35:07;24.60;17.90
12434;DHT22;6281;49.038;8.372;2024-03-02T11:37:37;25.30;15.20
12434;DHT22;6281;49.038;8.372;2024-03-02T11:42:38;24.10;15.70
12434;DHT22;6281;49.038;8.372;2024-03-02T11:46:59;25.30;13.80
12434;DHT22;6281;49.038;8.372;2024-03-02T11:52:00;23.10;15.80
12434;DHT22;6281;49.038;8.372;2024-03-02T11:52:58;23.50;16.40
12434;DHT22;6281;49.038;8.372;2024-03-02T11:55:47;27.30;14.40
12434;DHT22;6281;49.038;8.372;2024-03-02T11:58:28;28.20;12.50
12434;DHT22;6281;49.038;8.372;2024-03-02T12:01:18;25.10;14.90
12434;DHT22;6281;49.038;8.372;2024-03-02T12:03:58;24.40;16.10
12434;DHT22;6281;49.038;8.372;2024-03-02T12:09:38;26.70;13.70
12434;DHT22;6281;49.038;8.372;2024-03-02T12:14:28;27.50;13.70
12434;DHT22;6281;49.038;8.372;2024-03-02T12:15:39;28.30;12.70
12434;DHT22;6281;49.038;8.372;2024-03-02T12:18:47;27.00;14.40
12434;DHT22;6281;49.038;8.372;2024-03-02T12:25:18;26.10;14.20
12434;DHT22;6281;49.038;8.372;2024-03-02T12:31:18;24.20;16.70
12434;DHT22;6281;49.038;8.372;2024-03-02T12:36:06;22.60;18.60
12434;DHT22;6281;49.038;8.372;2024-03-02T12:37:17;21.90;19.20
12434;DHT22;6281;49.038;8.372;2024-03-02T12:40:19;22.00;19.00
12434;DHT22;6281;49.038;8.372;2024-03-02T12:42:58;22.10;19.70
12434;DHT22;6281;49.038;8.372;2024-03-02T12:45:59;22.70;19.20
12434;DHT22;6281;49.038;8.372;2024-03-02T12:49:08;21.80;18.40
12434;DHT22;6281;49.038;8.372;2024-03-02T12:55:27;22.00;21.10
12434;DHT22;6281;49.038;8.372;2024-03-02T12:58:16;21.90;20.40
12434;DHT22;6281;49.038;8.372;2024-03-02T13:01:08;21.60;19.90
12434;DHT22;6281;49.038;8.372;2024-03-02T13:06:58;20.30;20.70
12434;DHT22;6281;49.038;8.372;2024-03-02T13:09:49;20.70;21.00
12434;DHT22;6281;49.038;8.372;2024-03-02T13:12:48;21.30;20.70
12434;DHT22;6281;49.038;8.372;2024-03-02T13:15:28;22.20;21.40
12434;DHT22;6281;49.038;8.372;2024-03-02T13:21:27;21.80;21.40
12434;DHT22;6281;49.038;8.372;2024-03-02T13:24:07;21.80;19.90
12434;DHT22;6281;49.038;8.372;2024-03-02T13:26:37;21.40;20.50
12434;DHT22;6281;49.038;8.372;2024-03-02T13:32:36;20.10;22.60
12434;DHT22;6281;49.038;8.372;2024-03-02T13:35:17;19.80;21.70
12434;DHT22;6281;49.038;8.372;2024-03-02T13:38:07;19.50;23.20
12434;DHT22;6281;49.038;8.372;2024-03-02T13:42:56;19.00;24.50
12434;DHT22;6281;49.038;8.372;2024-03-02T13:44:07;20.20;24.50
12434;DHT22;6281;49.038;8.372;2024-03-02T13:50:18;19.80;24.10
12434;DHT22;6281;49.038;8.372;2024-03-02T13:52:58;19.00;24.50
12434;DHT22;6281;49.038;8.372;2024-03-02T13:59:26;19.40;24.70
12434;DHT22;6281;49.038;8.372;2024-03-02T14:02:17;19.90;25.00
12434;DHT22;6281;49.038;8.372;2024-03-02T14:08:38;19.70;27.20
12434;DHT22;6281;49.038;8.372;2024-03-02T14:11:27;20.10;25.40
12434;DHT22;6281;49.038;8.372;2024-03-02T14:18:08;19.70;28.20
12434;DHT22;6281;49.038;8.372;2024-03-02T14:20:47;19.90;25.90
12434;DHT22;6281;49.038;8.372;2024-03-02T14:23:18;19.50;26.60
12434;DHT22;6281;49.038;8.372;2024-03-02T14:26:17;19.40;26.50
12434;DHT22;6281;49.038;8.372;2024-03-02T14:28:48;19.40;28.80
12434;DHT22;6281;49.038;8.372;2024-03-02T14:31:48;18.40;30.40
12434;DHT22;6281;49.038;8.372;2024-03-02T14:34:37;18.80;29.20
12434;DHT22;6281;49.038;8.372;2024-03-02T14:37:08;18.80;29.40
12434;DHT22;6281;49.038;8.372;2024-03-02T14:39:47;18.70;30.10
12434;DHT22;6281;49.038;8.372;2024-03-02T14:42:48;18.20;33.60
12434;DHT22;6281;49.038;8.372;2024-03-02T14:45:36;18.30;33.60
12434;DHT22;6281;49.038;8.372;2024-03-02T14:48:49;18.50;33.20
12434;DHT22;6281;49.038;8.372;2024-03-02T14:51:37;18.30;35.50
12434;DHT22;6281;49.038;8.372;2024-03-02T14:54:07;17.90;34.00
12434;DHT22;6281;49.038;8.372;2024-03-02T14:56:47;17.60;38.40
12434;DHT22;6281;49.038;8.372;2024-03-02T14:59:48;17.20;41.40
12434;DHT22;6281;49.038;8.372;2024-03-02T15:02:37;16.90;44.90
12434;DHT22;6281;49.038;8.372;2024-03-02T15:05:38;17.00;48.50
12434;DHT22;6281;49.038;8.372;2024-03-02T15:08:28;17.30;46.80
12434;DHT22;6281;49.038;8.372;2024-03-02T15:13:17;17.00;49.50
12434;DHT22;6281;49.038;8.372;2024-03-02T15:14:08;16.90;57.00
12434;DHT22;6281;49.038;8.372;2024-03-02T15:19:07;16.70;55.40
12434;DHT22;6281;49.038;8.372;2024-03-02T15:19:57;17.10;50.30
12434;DHT22;6281;49.038;8.372;2024-03-02T15:22:27;16.90;56.60
12434;DHT22;6281;49.038;8.372;2024-03-02T15:24:59;16.90;54.50
12434;DHT22;6281;49.038;8.372;2024-03-02T15:27:49;16.80;58.40
12434;DHT22;6281;49.038;8.372;2024-03-02T15:30:47;16.70;54.90
12434;DHT22;6281;49.038;8.372;2024-03-02T15:33:38;16.60;57.00
12434;DHT22;6281;49.038;8.372;2024-03-02T15:36:18;16.70;57.30
12434;DHT22;6281;49.038;8.372;2024-03-02T15:39:07;16.50;63.50
12434;DHT22;6281;49.038;8.372;2024-03-02T15:41:58;16.30;65.70
12434;DHT22;6281;49.038;8.372;2024-03-02T15:44:38;16.40;65.60
12434;DHT22;6281;49.038;8.372;2024-03-02T15:47:19;16.20;77.80
12434;DHT22;6281;49.038;8.372;2024-03-02T15:52:17;16.10;77.40
12434;DHT22;6281;49.038;8.372;2024-03-02T15:53:27;15.80;90.80
12434;DHT22;6281;49.038;8.372;2024-03-02T15:56:07;15.90;91.10
12434;DHT22;6281;49.038;8.372;2024-03-02T16:04:49;15.80;98.60
12434;DHT22;6281;49.038;8.372;2024-03-02T16:07:49;15.70;92.70
12434;DHT22;6281;49.038;8.372;2024-03-02T16:10:47;15.50;97.00
12434;DHT22;6281;49.038;8.372;2024-03-02T16:13:27;15.60;99.90
12434;DHT22;6281;49.038;8.372;2024-03-02T16:15:57;15.60;99.90
12434;DHT22;6281;49.038;8.372;2024-03-02T16:18:28;15.60;95.00
12434;DHT22;6281;49.038;8.372;2024-03-02T16:21:18;15.30;99.90
12434;DHT22;6281;49.038;8.372;2024-03-02T16:23:58;15.40;99.90
12434;DHT22;6281;49.038;8.372;2024-03-02T16:26:47;15.30;99.90
12434;DHT22;6281;49.038;8.372;2024-03-02T16:29:28;15.30;99.90
12434;DHT22;6281;49.038;8.372;2024-03-02T16:32:08;14.90;99.90
12434;DHT22;6281;49.038;8.372;2024-03-02T16:35:06;14.70;99.90
12434;DHT22;6281;49.038;8.372;2024-03-02T16:37:38;15.00;99.90
12434;DHT22;6281;49.038;8.372;2024-03-02T16:40:28;15.00;99.90
12434;DHT22;6281;49.038;8.372;2024-03-02T16:44:18;15.00;99.90
12434;DHT22;6281;49.038;8.372;2024-03-02T16:46:48;14.90;99.90
12434;DHT22;6281;49.038;8.372;2024-03-02T16:49:38;14.90;99.90
12434;DHT22;6281;49.038;8.372;2024-03-02T16:52:39;14.80;99.90
12434;DHT22;6281;49.038;8.372;2024-03-02T17:09:09;13.80;99.90
12434;DHT22;6281;49.038;8.372;2024-03-02T17:11:58;13.80;99.90
12434;DHT22;6281;49.038;8.372;2024-03-02T17:17:58;13.60;99.90
12434;DHT22;6281;49.038;8.372;2024-03-02T17:23:48;13.50;99.90
12434;DHT22;6281;49.038;8.372;2024-03-02T17:26:39;13.40;99.90
12434;DHT22;6281;49.038;8.372;2024-03-02T17:32:44;13.40;99.90
12434;DHT22;6281;49.038;8.372;2024-03-02T17:35:11;13.30;99.90
12434;DHT22;6281;49.038;8.372;2024-03-02T17:37:40;13.50;99.90
12434;DHT22;6281;49.038;8.372;2024-03-02T17:40:07;13.50;99.90
12434;DHT22;6281;49.038;8.372;2024-03-02T17:42:35;13.40;99.90
12434;DHT22;6281;49.038;8.372;2024-03-02T17:45:02;13.40;99.90
12434;DHT22;6281;49.038;8.372;2024-03-02T17:47:29;13.40;99.90
12434;DHT22;6281;49.038;8.372;2024-03-02T17:49:58;13.40;99.90